sensor_id;sensor_type;location;lat;lon;timestamp;P1;durP1;ratioP1;P2;durP2;ratioP2
4198;SDS011;2113;50.946;14.610;2022-08-21T00:02:02;49.90;;;30.95;;
4198;SDS011;2113;50.946;14.610;2022-08-21T00:04:31;45.13;;;27.33;;
4198;SDS011;2113;50.946;14.610;2022-08-21T00:06:59;53.92;;;32.13;;
4198;SDS011;2113;50.946;14.610;2022-08-21T00:09:32;50.33;;;28.35;;
4198;SDS011;2113;50.946;14.610;2022-08-21T00:12:00;44.60;;;27.73;;
4198;SDS011;2113;50.946;14.610;2022-08-21T00:14:28;50.38;;;28.65;;
4198;SDS011;2113;50.946;14.610;2022-08-21T00:16:59;46.55;;;27.63;;
4198;SDS011;2113;50.946;14.610;2022-08-21T00:19:33;53.13;;;29.80;;
4198;SDS011;2113;50.946;14.610;2022-08-21T00:22:01;48.05;;;29.10;;
4198;SDS011;2113;50.946;14.610;2022-08-21T00:24:29;49.33;;;31.20;;
4198;SDS011;2113;50.946;14.610;2022-08-21T00:26:59;49.95;;;29.98;;
4198;SDS011;2113;50.946;14.610;2022-08-21T00:29:27;56.40;;;32.42;;
4198;SDS011;2113;50.946;14.610;2022-08-21T00:31:55;57.10;;;32.85;;
4198;SDS011;2113;50.946;14.610;2022-08-21T00:34:27;48.90;;;29.88;;
4198;SDS011;2113;50.946;14.610;2022-08-21T00:36:55;47.35;;;29.17;;
4198;SDS011;2113;50.946;14.610;2022-08-21T00:39:23;51.83;;;28.67;;
4198;SDS011;2113;50.946;14.610;2022-08-21T00:41:54;49.92;;;29.83;;
4198;SDS011;2113;50.946;14.610;2022-08-21T00:44:26;45.00;;;28.98;;
4198;SDS011;2113;50.946;14.610;2022-08-21T00:46:53;54.47;;;32.47;;
4198;SDS011;2113;50.946;14.610;2022-08-21T00:49:22;52.58;;;32.30;;
4198;SDS011;2113;50.946;14.610;2022-08-21T00:51:51;53.17;;;31.10;;
4198;SDS011;2113;50.946;14.610;2022-08-21T00:54:22;57.38;;;32.85;;
4198;SDS011;2113;50.946;14.610;2022-08-21T00:56:57;59.28;;;34.03;;
4198;SDS011;2113;50.946;14.610;2022-08-21T00:59:33;58.17;;;32.92;;
4198;SDS011;2113;50.946;14.610;2022-08-21T01:02:05;57.22;;;34.85;;
4198;SDS011;2113;50.946;14.610;2022-08-21T01:04:39;55.80;;;31.60;;
4198;SDS011;2113;50.946;14.610;2022-08-21T01:07:07;48.90;;;32.25;;
4198;SDS011;2113;50.946;14.610;2022-08-21T01:09:35;51.53;;;32.55;;
4198;SDS011;2113;50.946;14.610;2022-08-21T01:12:04;68.35;;;34.53;;
4198;SDS011;2113;50.946;14.610;2022-08-21T01:14:37;52.33;;;30.27;;
4198;SDS011;2113;50.946;14.610;2022-08-21T01:17:11;51.83;;;31.33;;
4198;SDS011;2113;50.946;14.610;2022-08-21T01:19:56;61.33;;;32.67;;
4198;SDS011;2113;50.946;14.610;2022-08-21T01:22:30;48.03;;;30.25;;
4198;SDS011;2113;50.946;14.610;2022-08-21T01:25:00;49.53;;;30.77;;
4198;SDS011;2113;50.946;14.610;2022-08-21T01:27:28;52.75;;;32.17;;
4198;SDS011;2113;50.946;14.610;2022-08-21T01:29:58;52.65;;;31.75;;
4198;SDS011;2113;50.946;14.610;2022-08-21T01:32:35;46.30;;;28.25;;
4198;SDS011;2113;50.946;14.610;2022-08-21T01:35:10;49.13;;;29.70;;
4198;SDS011;2113;50.946;14.610;2022-08-21T01:37:43;48.75;;;30.42;;
4198;SDS011;2113;50.946;14.610;2022-08-21T01:40:12;47.33;;;29.08;;
4198;SDS011;2113;50.946;14.610;2022-08-21T01:42:44;45.10;;;29.48;;
4198;SDS011;2113;50.946;14.610;2022-08-21T01:45:14;43.00;;;28.25;;
4198;SDS011;2113;50.946;14.610;2022-08-21T01:47:43;58.80;;;30.60;;
4198;SDS011;2113;50.946;14.610;2022-08-21T01:50:16;58.70;;;32.20;;
4198;SDS011;2113;50.946;14.610;2022-08-21T01:55:36;45.80;;;30.33;;
4198;SDS011;2113;50.946;14.610;2022-08-21T01:58:05;53.83;;;31.25;;
4198;SDS011;2113;50.946;14.610;2022-08-21T02:00:36;50.10;;;31.48;;
4198;SDS011;2113;50.946;14.610;2022-08-21T02:03:10;49.80;;;31.70;;
4198;SDS011;2113;50.946;14.610;2022-08-21T02:05:51;52.40;;;34.42;;
4198;SDS011;2113;50.946;14.610;2022-08-21T02:08:20;47.45;;;29.88;;
4198;SDS011;2113;50.946;14.610;2022-08-21T02:10:50;54.20;;;32.53;;
4198;SDS011;2113;50.946;14.610;2022-08-21T02:13:20;50.08;;;34.15;;
4198;SDS011;2113;50.946;14.610;2022-08-21T02:15:50;50.08;;;32.38;;
4198;SDS011;2113;50.946;14.610;2022-08-21T02:18:18;48.00;;;30.73;;
4198;SDS011;2113;50.946;14.610;2022-08-21T02:20:47;50.75;;;31.40;;
4198;SDS011;2113;50.946;14.610;2022-08-21T02:23:24;53.78;;;32.63;;
4198;SDS011;2113;50.946;14.610;2022-08-21T02:25:54;53.08;;;31.50;;
4198;SDS011;2113;50.946;14.610;2022-08-21T02:28:24;51.83;;;31.92;;
4198;SDS011;2113;50.946;14.610;2022-08-21T02:30:53;47.92;;;31.95;;
4198;SDS011;2113;50.946;14.610;2022-08-21T02:33:28;50.40;;;30.45;;
4198;SDS011;2113;50.946;14.610;2022-08-21T02:35:56;45.42;;;32.33;;
4198;SDS011;2113;50.946;14.610;2022-08-21T02:38:28;47.35;;;30.85;;
4198;SDS011;2113;50.946;14.610;2022-08-21T02:41:00;49.30;;;33.67;;
4198;SDS011;2113;50.946;14.610;2022-08-21T02:43:28;52.10;;;33.47;;
4198;SDS011;2113;50.946;14.610;2022-08-21T02:45:59;48.55;;;31.30;;
4198;SDS011;2113;50.946;14.610;2022-08-21T02:48:37;44.30;;;30.15;;
4198;SDS011;2113;50.946;14.610;2022-08-21T02:51:19;41.83;;;28.98;;
4198;SDS011;2113;50.946;14.610;2022-08-21T02:53:50;47.58;;;31.38;;
4198;SDS011;2113;50.946;14.610;2022-08-21T02:56:21;45.55;;;30.40;;
4198;SDS011;2113;50.946;14.610;2022-08-21T02:59:02;44.20;;;29.50;;
4198;SDS011;2113;50.946;14.610;2022-08-21T03:01:35;40.97;;;27.70;;
4198;SDS011;2113;50.946;14.610;2022-08-21T03:04:07;49.70;;;30.40;;
4198;SDS011;2113;50.946;14.610;2022-08-21T03:06:36;45.63;;;29.75;;
4198;SDS011;2113;50.946;14.610;2022-08-21T03:09:05;52.08;;;29.92;;
4198;SDS011;2113;50.946;14.610;2022-08-21T03:11:34;46.35;;;28.10;;
4198;SDS011;2113;50.946;14.610;2022-08-21T03:14:05;41.55;;;27.95;;
4198;SDS011;2113;50.946;14.610;2022-08-21T03:16:33;40.70;;;26.92;;
4198;SDS011;2113;50.946;14.610;2022-08-21T03:19:03;43.08;;;28.50;;
4198;SDS011;2113;50.946;14.610;2022-08-21T03:21:37;44.28;;;27.98;;
4198;SDS011;2113;50.946;14.610;2022-08-21T03:24:07;45.13;;;29.10;;
4198;SDS011;2113;50.946;14.610;2022-08-21T03:26:38;41.15;;;27.05;;
4198;SDS011;2113;50.946;14.610;2022-08-21T03:29:18;47.10;;;27.88;;
4198;SDS011;2113;50.946;14.610;2022-08-21T03:31:46;38.47;;;25.90;;
4198;SDS011;2113;50.946;14.610;2022-08-21T03:34:39;38.28;;;25.73;;
4198;SDS011;2113;50.946;14.610;2022-08-21T03:37:08;41.10;;;23.70;;
4198;SDS011;2113;50.946;14.610;2022-08-21T03:39:41;31.35;;;20.65;;
4198;SDS011;2113;50.946;14.610;2022-08-21T03:42:13;35.08;;;23.20;;
4198;SDS011;2113;50.946;14.610;2022-08-21T03:44:41;29.92;;;20.92;;
4198;SDS011;2113;50.946;14.610;2022-08-21T03:47:10;32.92;;;21.25;;
4198;SDS011;2113;50.946;14.610;2022-08-21T03:49:38;30.63;;;19.17;;
4198;SDS011;2113;50.946;14.610;2022-08-21T03:52:07;26.13;;;18.92;;
4198;SDS011;2113;50.946;14.610;2022-08-21T03:54:35;24.77;;;15.95;;
4198;SDS011;2113;50.946;14.610;2022-08-21T03:57:04;26.77;;;16.60;;
4198;SDS011;2113;50.946;14.610;2022-08-21T03:59:33;20.30;;;15.23;;
4198;SDS011;2113;50.946;14.610;2022-08-21T04:02:05;21.13;;;16.10;;
4198;SDS011;2113;50.946;14.610;2022-08-21T04:04:36;27.98;;;18.33;;
4198;SDS011;2113;50.946;14.610;2022-08-21T04:07:04;20.88;;;15.23;;
4198;SDS011;2113;50.946;14.610;2022-08-21T04:09:32;20.38;;;14.90;;
4198;SDS011;2113;50.946;14.610;2022-08-21T04:12:00;26.65;;;17.40;;
4198;SDS011;2113;50.946;14.610;2022-08-21T04:14:33;25.42;;;16.95;;
4198;SDS011;2113;50.946;14.610;2022-08-21T04:17:04;26.42;;;17.85;;
4198;SDS011;2113;50.946;14.610;2022-08-21T04:19:43;28.45;;;18.58;;
4198;SDS011;2113;50.946;14.610;2022-08-21T04:22:21;22.55;;;16.73;;
4198;SDS011;2113;50.946;14.610;2022-08-21T04:24:55;26.40;;;18.08;;
4198;SDS011;2113;50.946;14.610;2022-08-21T04:27:26;23.00;;;16.35;;
4198;SDS011;2113;50.946;14.610;2022-08-21T04:32:44;22.55;;;15.88;;
4198;SDS011;2113;50.946;14.610;2022-08-21T04:35:23;21.83;;;15.32;;
4198;SDS011;2113;50.946;14.610;2022-08-21T04:37:52;23.63;;;16.15;;
4198;SDS011;2113;50.946;14.610;2022-08-21T04:40:27;26.33;;;16.90;;
4198;SDS011;2113;50.946;14.610;2022-08-21T04:43:00;21.35;;;15.80;;
4198;SDS011;2113;50.946;14.610;2022-08-21T04:45:33;30.42;;;18.85;;
4198;SDS011;2113;50.946;14.610;2022-08-21T04:48:04;25.45;;;17.60;;
4198;SDS011;2113;50.946;14.610;2022-08-21T04:50:40;25.58;;;16.77;;
4198;SDS011;2113;50.946;14.610;2022-08-21T04:53:22;29.70;;;18.88;;
4198;SDS011;2113;50.946;14.610;2022-08-21T04:55:55;24.73;;;17.05;;
4198;SDS011;2113;50.946;14.610;2022-08-21T04:58:32;25.95;;;18.20;;
4198;SDS011;2113;50.946;14.610;2022-08-21T05:01:09;26.25;;;17.38;;
4198;SDS011;2113;50.946;14.610;2022-08-21T05:03:49;29.90;;;16.95;;
4198;SDS011;2113;50.946;14.610;2022-08-21T05:06:22;29.25;;;18.80;;
4198;SDS011;2113;50.946;14.610;2022-08-21T05:09:01;25.42;;;18.02;;
4198;SDS011;2113;50.946;14.610;2022-08-21T05:11:32;24.67;;;18.13;;
4198;SDS011;2113;50.946;14.610;2022-08-21T05:14:05;28.58;;;20.70;;
4198;SDS011;2113;50.946;14.610;2022-08-21T05:16:40;28.88;;;19.10;;
4198;SDS011;2113;50.946;14.610;2022-08-21T05:19:13;29.25;;;19.55;;
4198;SDS011;2113;50.946;14.610;2022-08-21T05:21:43;29.13;;;19.40;;
4198;SDS011;2113;50.946;14.610;2022-08-21T05:24:14;26.58;;;18.52;;
4198;SDS011;2113;50.946;14.610;2022-08-21T05:26:44;27.10;;;19.20;;
4198;SDS011;2113;50.946;14.610;2022-08-21T05:29:15;21.90;;;17.13;;
4198;SDS011;2113;50.946;14.610;2022-08-21T05:31:46;22.88;;;17.13;;
4198;SDS011;2113;50.946;14.610;2022-08-21T05:34:44;28.10;;;18.10;;
4198;SDS011;2113;50.946;14.610;2022-08-21T05:37:16;26.48;;;18.08;;
4198;SDS011;2113;50.946;14.610;2022-08-21T05:39:48;25.02;;;19.67;;
4198;SDS011;2113;50.946;14.610;2022-08-21T05:42:39;22.52;;;18.27;;
4198;SDS011;2113;50.946;14.610;2022-08-21T05:45:07;26.75;;;20.35;;
4198;SDS011;2113;50.946;14.610;2022-08-21T05:47:37;23.40;;;17.85;;
4198;SDS011;2113;50.946;14.610;2022-08-21T05:50:08;24.02;;;19.25;;
4198;SDS011;2113;50.946;14.610;2022-08-21T05:52:36;24.90;;;18.48;;
4198;SDS011;2113;50.946;14.610;2022-08-21T05:55:04;28.63;;;19.52;;
4198;SDS011;2113;50.946;14.610;2022-08-21T05:57:33;28.58;;;19.73;;
4198;SDS011;2113;50.946;14.610;2022-08-21T06:00:02;24.48;;;17.52;;
4198;SDS011;2113;50.946;14.610;2022-08-21T06:02:39;20.35;;;16.40;;
4198;SDS011;2113;50.946;14.610;2022-08-21T06:05:08;23.65;;;18.45;;
4198;SDS011;2113;50.946;14.610;2022-08-21T06:07:42;28.80;;;19.13;;
4198;SDS011;2113;50.946;14.610;2022-08-21T06:10:10;23.70;;;16.98;;
4198;SDS011;2113;50.946;14.610;2022-08-21T06:12:42;21.98;;;18.15;;
4198;SDS011;2113;50.946;14.610;2022-08-21T06:15:10;23.27;;;17.63;;
4198;SDS011;2113;50.946;14.610;2022-08-21T06:17:40;23.27;;;17.98;;
4198;SDS011;2113;50.946;14.610;2022-08-21T06:20:09;21.92;;;18.02;;
4198;SDS011;2113;50.946;14.610;2022-08-21T06:22:37;23.00;;;16.80;;
4198;SDS011;2113;50.946;14.610;2022-08-21T06:25:05;19.55;;;16.05;;
4198;SDS011;2113;50.946;14.610;2022-08-21T06:27:34;23.40;;;18.00;;
4198;SDS011;2113;50.946;14.610;2022-08-21T06:30:04;21.60;;;17.90;;
4198;SDS011;2113;50.946;14.610;2022-08-21T06:32:34;21.00;;;17.80;;
4198;SDS011;2113;50.946;14.610;2022-08-21T06:35:08;26.85;;;21.52;;
4198;SDS011;2113;50.946;14.610;2022-08-21T06:37:41;23.25;;;17.98;;
4198;SDS011;2113;50.946;14.610;2022-08-21T06:40:10;28.80;;;19.85;;
4198;SDS011;2113;50.946;14.610;2022-08-21T06:42:39;21.90;;;17.55;;
4198;SDS011;2113;50.946;14.610;2022-08-21T06:45:09;23.85;;;17.98;;
4198;SDS011;2113;50.946;14.610;2022-08-21T06:47:38;20.02;;;15.93;;
4198;SDS011;2113;50.946;14.610;2022-08-21T06:50:10;19.50;;;15.35;;
4198;SDS011;2113;50.946;14.610;2022-08-21T06:52:44;27.73;;;16.40;;
4198;SDS011;2113;50.946;14.610;2022-08-21T06:55:12;21.80;;;15.75;;
4198;SDS011;2113;50.946;14.610;2022-08-21T06:57:48;24.92;;;16.83;;
4198;SDS011;2113;50.946;14.610;2022-08-21T07:00:18;21.20;;;16.00;;
4198;SDS011;2113;50.946;14.610;2022-08-21T07:02:46;25.88;;;15.85;;
4198;SDS011;2113;50.946;14.610;2022-08-21T07:05:16;24.00;;;16.30;;
4198;SDS011;2113;50.946;14.610;2022-08-21T07:07:47;20.23;;;15.05;;
4198;SDS011;2113;50.946;14.610;2022-08-21T07:10:17;21.73;;;16.45;;
4198;SDS011;2113;50.946;14.610;2022-08-21T07:12:48;21.75;;;14.90;;
4198;SDS011;2113;50.946;14.610;2022-08-21T07:15:27;19.10;;;15.45;;
4198;SDS011;2113;50.946;14.610;2022-08-21T07:17:56;21.25;;;14.98;;
4198;SDS011;2113;50.946;14.610;2022-08-21T07:20:26;19.10;;;14.45;;
4198;SDS011;2113;50.946;14.610;2022-08-21T07:22:56;17.27;;;14.00;;
4198;SDS011;2113;50.946;14.610;2022-08-21T07:25:27;19.38;;;14.10;;
4198;SDS011;2113;50.946;14.610;2022-08-21T07:27:55;16.58;;;13.15;;
4198;SDS011;2113;50.946;14.610;2022-08-21T07:30:24;16.90;;;12.55;;
4198;SDS011;2113;50.946;14.610;2022-08-21T07:32:53;14.63;;;13.05;;
4198;SDS011;2113;50.946;14.610;2022-08-21T07:35:26;16.15;;;12.55;;
4198;SDS011;2113;50.946;14.610;2022-08-21T07:37:54;16.20;;;12.60;;
4198;SDS011;2113;50.946;14.610;2022-08-21T07:40:22;15.80;;;12.35;;
4198;SDS011;2113;50.946;14.610;2022-08-21T07:42:50;14.40;;;11.50;;
4198;SDS011;2113;50.946;14.610;2022-08-21T07:45:20;14.93;;;10.40;;
4198;SDS011;2113;50.946;14.610;2022-08-21T07:47:51;11.00;;;8.60;;
4198;SDS011;2113;50.946;14.610;2022-08-21T07:50:23;15.98;;;9.10;;
4198;SDS011;2113;50.946;14.610;2022-08-21T07:52:56;11.82;;;7.80;;
4198;SDS011;2113;50.946;14.610;2022-08-21T07:55:30;12.13;;;7.88;;
4198;SDS011;2113;50.946;14.610;2022-08-21T07:57:58;11.48;;;7.00;;
4198;SDS011;2113;50.946;14.610;2022-08-21T08:00:27;13.68;;;7.90;;
4198;SDS011;2113;50.946;14.610;2022-08-21T08:02:57;11.15;;;6.80;;
4198;SDS011;2113;50.946;14.610;2022-08-21T08:05:26;8.07;;;5.80;;
4198;SDS011;2113;50.946;14.610;2022-08-21T08:07:57;8.20;;;6.28;;
4198;SDS011;2113;50.946;14.610;2022-08-21T08:10:25;11.18;;;6.32;;
4198;SDS011;2113;50.946;14.610;2022-08-21T08:12:54;12.68;;;7.82;;
4198;SDS011;2113;50.946;14.610;2022-08-21T08:18:31;9.73;;;4.80;;
4198;SDS011;2113;50.946;14.610;2022-08-21T08:21:03;8.60;;;4.85;;
4198;SDS011;2113;50.946;14.610;2022-08-21T08:23:34;10.38;;;5.65;;
4198;SDS011;2113;50.946;14.610;2022-08-21T08:26:04;12.40;;;5.38;;
4198;SDS011;2113;50.946;14.610;2022-08-21T08:28:35;4.88;;;4.13;;
4198;SDS011;2113;50.946;14.610;2022-08-21T08:35:16;8.05;;;4.68;;
4198;SDS011;2113;50.946;14.610;2022-08-21T08:38:03;9.25;;;4.93;;
4198;SDS011;2113;50.946;14.610;2022-08-21T08:41:29;7.97;;;5.28;;
4198;SDS011;2113;50.946;14.610;2022-08-21T08:47:40;10.30;;;6.30;;
4198;SDS011;2113;50.946;14.610;2022-08-21T08:51:19;10.88;;;6.60;;
4198;SDS011;2113;50.946;14.610;2022-08-21T08:54:25;9.73;;;7.22;;
4198;SDS011;2113;50.946;14.610;2022-08-21T08:57:07;12.52;;;7.72;;
4198;SDS011;2113;50.946;14.610;2022-08-21T08:59:45;10.40;;;7.20;;
4198;SDS011;2113;50.946;14.610;2022-08-21T09:02:16;13.80;;;8.77;;
4198;SDS011;2113;50.946;14.610;2022-08-21T09:08:44;11.50;;;9.20;;
4198;SDS011;2113;50.946;14.610;2022-08-21T09:11:22;12.05;;;9.25;;
4198;SDS011;2113;50.946;14.610;2022-08-21T09:14:00;11.13;;;7.95;;
4198;SDS011;2113;50.946;14.610;2022-08-21T09:16:44;16.42;;;8.77;;
4198;SDS011;2113;50.946;14.610;2022-08-21T09:23:04;10.20;;;7.95;;
4198;SDS011;2113;50.946;14.610;2022-08-21T09:25:42;11.38;;;7.80;;
4198;SDS011;2113;50.946;14.610;2022-08-21T09:28:13;10.07;;;8.70;;
4198;SDS011;2113;50.946;14.610;2022-08-21T09:30:42;10.30;;;8.05;;
4198;SDS011;2113;50.946;14.610;2022-08-21T09:33:11;9.65;;;7.90;;
4198;SDS011;2113;50.946;14.610;2022-08-21T09:35:50;7.50;;;6.70;;
4198;SDS011;2113;50.946;14.610;2022-08-21T09:38:27;9.93;;;7.60;;
4198;SDS011;2113;50.946;14.610;2022-08-21T09:41:00;8.85;;;6.20;;
4198;SDS011;2113;50.946;14.610;2022-08-21T09:43:30;7.45;;;6.00;;
4198;SDS011;2113;50.946;14.610;2022-08-21T09:46:05;8.90;;;5.80;;
4198;SDS011;2113;50.946;14.610;2022-08-21T09:48:40;10.48;;;6.70;;
4198;SDS011;2113;50.946;14.610;2022-08-21T09:51:12;10.00;;;6.03;;
4198;SDS011;2113;50.946;14.610;2022-08-21T09:53:47;7.32;;;5.93;;
4198;SDS011;2113;50.946;14.610;2022-08-21T09:56:27;9.55;;;6.43;;
4198;SDS011;2113;50.946;14.610;2022-08-21T09:59:19;10.23;;;6.53;;
4198;SDS011;2113;50.946;14.610;2022-08-21T10:02:22;9.15;;;5.60;;
4198;SDS011;2113;50.946;14.610;2022-08-21T10:04:53;8.20;;;5.15;;
4198;SDS011;2113;50.946;14.610;2022-08-21T10:07:24;9.73;;;5.97;;
4198;SDS011;2113;50.946;14.610;2022-08-21T10:09:58;8.65;;;5.95;;
4198;SDS011;2113;50.946;14.610;2022-08-21T10:12:29;9.55;;;6.25;;
4198;SDS011;2113;50.946;14.610;2022-08-21T10:15:09;6.93;;;6.15;;
4198;SDS011;2113;50.946;14.610;2022-08-21T10:17:46;9.32;;;5.68;;
4198;SDS011;2113;50.946;14.610;2022-08-21T10:20:29;8.52;;;6.47;;
4198;SDS011;2113;50.946;14.610;2022-08-21T10:23:16;8.52;;;7.03;;
4198;SDS011;2113;50.946;14.610;2022-08-21T10:26:20;12.93;;;7.32;;
4198;SDS011;2113;50.946;14.610;2022-08-21T10:29:09;12.75;;;6.05;;
4198;SDS011;2113;50.946;14.610;2022-08-21T10:31:53;8.98;;;5.68;;
4198;SDS011;2113;50.946;14.610;2022-08-21T10:35:02;5.57;;;4.15;;
4198;SDS011;2113;50.946;14.610;2022-08-21T10:37:47;10.65;;;5.68;;
4198;SDS011;2113;50.946;14.610;2022-08-21T10:40:29;8.57;;;5.00;;
4198;SDS011;2113;50.946;14.610;2022-08-21T10:43:08;9.60;;;5.38;;
4198;SDS011;2113;50.946;14.610;2022-08-21T10:45:57;10.52;;;6.38;;
4198;SDS011;2113;50.946;14.610;2022-08-21T10:48:35;6.25;;;5.65;;
4198;SDS011;2113;50.946;14.610;2022-08-21T10:51:22;8.65;;;6.05;;
4198;SDS011;2113;50.946;14.610;2022-08-21T10:53:59;7.10;;;5.35;;
4198;SDS011;2113;50.946;14.610;2022-08-21T10:56:36;12.15;;;6.05;;
4198;SDS011;2113;50.946;14.610;2022-08-21T10:59:38;9.48;;;5.93;;
4198;SDS011;2113;50.946;14.610;2022-08-21T11:05:38;6.78;;;4.63;;
4198;SDS011;2113;50.946;14.610;2022-08-21T11:08:18;9.00;;;4.63;;
4198;SDS011;2113;50.946;14.610;2022-08-21T11:10:55;5.35;;;3.60;;
4198;SDS011;2113;50.946;14.610;2022-08-21T11:13:27;4.75;;;4.15;;
4198;SDS011;2113;50.946;14.610;2022-08-21T11:16:05;5.55;;;3.58;;
4198;SDS011;2113;50.946;14.610;2022-08-21T11:18:38;4.57;;;3.80;;
4198;SDS011;2113;50.946;14.610;2022-08-21T11:21:18;8.27;;;4.18;;
4198;SDS011;2113;50.946;14.610;2022-08-21T11:23:57;8.45;;;4.40;;
4198;SDS011;2113;50.946;14.610;2022-08-21T11:26:32;6.72;;;4.72;;
4198;SDS011;2113;50.946;14.610;2022-08-21T11:29:08;9.90;;;4.22;;
4198;SDS011;2113;50.946;14.610;2022-08-21T11:31:47;7.63;;;4.90;;
4198;SDS011;2113;50.946;14.610;2022-08-21T11:34:54;5.15;;;4.03;;
4198;SDS011;2113;50.946;14.610;2022-08-21T11:37:35;8.95;;;4.85;;
4198;SDS011;2113;50.946;14.610;2022-08-21T11:40:19;5.97;;;4.45;;
4198;SDS011;2113;50.946;14.610;2022-08-21T11:43:00;6.95;;;5.38;;
4198;SDS011;2113;50.946;14.610;2022-08-21T11:45:36;8.77;;;4.18;;
4198;SDS011;2113;50.946;14.610;2022-08-21T11:48:11;5.25;;;3.78;;
4198;SDS011;2113;50.946;14.610;2022-08-21T11:50:48;6.00;;;3.35;;
4198;SDS011;2113;50.946;14.610;2022-08-21T11:53:32;5.50;;;4.22;;
4198;SDS011;2113;50.946;14.610;2022-08-21T11:56:23;6.03;;;3.95;;
4198;SDS011;2113;50.946;14.610;2022-08-21T11:58:59;7.82;;;4.03;;
4198;SDS011;2113;50.946;14.610;2022-08-21T12:01:32;7.70;;;4.35;;
4198;SDS011;2113;50.946;14.610;2022-08-21T12:04:08;8.48;;;3.30;;
4198;SDS011;2113;50.946;14.610;2022-08-21T12:06:44;6.40;;;3.45;;
4198;SDS011;2113;50.946;14.610;2022-08-21T12:09:27;5.40;;;3.10;;
4198;SDS011;2113;50.946;14.610;2022-08-21T12:12:03;6.47;;;3.30;;
4198;SDS011;2113;50.946;14.610;2022-08-21T12:14:37;6.57;;;3.53;;
4198;SDS011;2113;50.946;14.610;2022-08-21T12:17:08;5.97;;;3.33;;
4198;SDS011;2113;50.946;14.610;2022-08-21T12:19:56;4.60;;;2.90;;
4198;SDS011;2113;50.946;14.610;2022-08-21T12:22:35;5.20;;;2.85;;
4198;SDS011;2113;50.946;14.610;2022-08-21T12:25:08;5.90;;;3.47;;
4198;SDS011;2113;50.946;14.610;2022-08-21T12:27:49;6.80;;;3.20;;
4198;SDS011;2113;50.946;14.610;2022-08-21T12:30:21;6.32;;;3.20;;
4198;SDS011;2113;50.946;14.610;2022-08-21T12:32:54;5.28;;;3.15;;
4198;SDS011;2113;50.946;14.610;2022-08-21T12:35:27;7.72;;;3.50;;
4198;SDS011;2113;50.946;14.610;2022-08-21T12:38:01;9.35;;;4.32;;
4198;SDS011;2113;50.946;14.610;2022-08-21T12:40:37;6.57;;;3.33;;
4198;SDS011;2113;50.946;14.610;2022-08-21T12:43:13;12.27;;;3.25;;
4198;SDS011;2113;50.946;14.610;2022-08-21T12:45:48;8.93;;;4.88;;
4198;SDS011;2113;50.946;14.610;2022-08-21T12:48:26;5.90;;;2.90;;
4198;SDS011;2113;50.946;14.610;2022-08-21T12:51:11;6.45;;;3.35;;
4198;SDS011;2113;50.946;14.610;2022-08-21T12:53:41;8.50;;;3.85;;
4198;SDS011;2113;50.946;14.610;2022-08-21T12:56:16;7.38;;;3.13;;
4198;SDS011;2113;50.946;14.610;2022-08-21T12:58:50;6.45;;;2.95;;
4198;SDS011;2113;50.946;14.610;2022-08-21T13:01:20;9.50;;;4.18;;
4198;SDS011;2113;50.946;14.610;2022-08-21T13:03:54;6.20;;;2.92;;
4198;SDS011;2113;50.946;14.610;2022-08-21T13:14:02;4.97;;;2.55;;
4198;SDS011;2113;50.946;14.610;2022-08-21T13:16:47;6.05;;;3.00;;
4198;SDS011;2113;50.946;14.610;2022-08-21T13:19:25;4.57;;;2.60;;
4198;SDS011;2113;50.946;14.610;2022-08-21T13:21:56;4.18;;;2.83;;
4198;SDS011;2113;50.946;14.610;2022-08-21T13:24:24;4.25;;;2.80;;
4198;SDS011;2113;50.946;14.610;2022-08-21T13:27:17;4.03;;;2.60;;
4198;SDS011;2113;50.946;14.610;2022-08-21T13:30:01;4.57;;;2.80;;
4198;SDS011;2113;50.946;14.610;2022-08-21T13:32:40;5.60;;;2.53;;
4198;SDS011;2113;50.946;14.610;2022-08-21T13:35:12;5.45;;;2.47;;
4198;SDS011;2113;50.946;14.610;2022-08-21T13:37:43;4.07;;;1.83;;
4198;SDS011;2113;50.946;14.610;2022-08-21T13:40:14;3.90;;;2.30;;
4198;SDS011;2113;50.946;14.610;2022-08-21T13:42:45;6.00;;;2.30;;
4198;SDS011;2113;50.946;14.610;2022-08-21T13:45:18;5.22;;;2.47;;
4198;SDS011;2113;50.946;14.610;2022-08-21T13:47:51;5.13;;;2.28;;
4198;SDS011;2113;50.946;14.610;2022-08-21T13:50:21;3.65;;;2.53;;
4198;SDS011;2113;50.946;14.610;2022-08-21T13:52:57;4.75;;;2.70;;
4198;SDS011;2113;50.946;14.610;2022-08-21T13:55:34;3.67;;;2.40;;
4198;SDS011;2113;50.946;14.610;2022-08-21T13:58:04;3.80;;;1.80;;
4198;SDS011;2113;50.946;14.610;2022-08-21T14:00:35;6.53;;;2.20;;
4198;SDS011;2113;50.946;14.610;2022-08-21T14:03:13;6.15;;;2.08;;
4198;SDS011;2113;50.946;14.610;2022-08-21T14:05:54;4.47;;;2.25;;
4198;SDS011;2113;50.946;14.610;2022-08-21T14:08:27;3.58;;;1.80;;
4198;SDS011;2113;50.946;14.610;2022-08-21T14:11:00;4.65;;;1.90;;
4198;SDS011;2113;50.946;14.610;2022-08-21T14:13:34;3.17;;;2.20;;
4198;SDS011;2113;50.946;14.610;2022-08-21T14:16:15;4.65;;;2.30;;
4198;SDS011;2113;50.946;14.610;2022-08-21T14:18:46;7.25;;;2.35;;
4198;SDS011;2113;50.946;14.610;2022-08-21T14:21:24;7.05;;;3.10;;
4198;SDS011;2113;50.946;14.610;2022-08-21T14:23:59;5.25;;;2.55;;
4198;SDS011;2113;50.946;14.610;2022-08-21T14:26:30;5.65;;;2.20;;
4198;SDS011;2113;50.946;14.610;2022-08-21T14:28:58;5.13;;;2.72;;
4198;SDS011;2113;50.946;14.610;2022-08-21T14:31:36;4.45;;;2.17;;
4198;SDS011;2113;50.946;14.610;2022-08-21T14:34:12;4.40;;;2.22;;
4198;SDS011;2113;50.946;14.610;2022-08-21T14:36:46;4.78;;;1.92;;
4198;SDS011;2113;50.946;14.610;2022-08-21T14:39:14;7.68;;;2.67;;
4198;SDS011;2113;50.946;14.610;2022-08-21T14:41:43;5.72;;;1.95;;
4198;SDS011;2113;50.946;14.610;2022-08-21T14:44:13;6.13;;;2.95;;
4198;SDS011;2113;50.946;14.610;2022-08-21T14:46:42;5.72;;;2.85;;
4198;SDS011;2113;50.946;14.610;2022-08-21T14:49:21;2.63;;;1.73;;
4198;SDS011;2113;50.946;14.610;2022-08-21T14:51:49;5.38;;;2.63;;
4198;SDS011;2113;50.946;14.610;2022-08-21T14:54:23;3.70;;;2.70;;
4198;SDS011;2113;50.946;14.610;2022-08-21T14:56:58;6.20;;;2.63;;
4198;SDS011;2113;50.946;14.610;2022-08-21T14:59:29;4.43;;;2.70;;
4198;SDS011;2113;50.946;14.610;2022-08-21T15:02:00;5.85;;;2.00;;
4198;SDS011;2113;50.946;14.610;2022-08-21T15:04:28;6.32;;;2.50;;
4198;SDS011;2113;50.946;14.610;2022-08-21T15:06:55;7.72;;;2.40;;
4198;SDS011;2113;50.946;14.610;2022-08-21T15:09:23;3.67;;;2.00;;
4198;SDS011;2113;50.946;14.610;2022-08-21T15:11:52;5.10;;;2.63;;
4198;SDS011;2113;50.946;14.610;2022-08-21T15:14:23;4.43;;;2.35;;
4198;SDS011;2113;50.946;14.610;2022-08-21T15:16:53;4.95;;;2.13;;
4198;SDS011;2113;50.946;14.610;2022-08-21T15:19:22;3.75;;;2.40;;
4198;SDS011;2113;50.946;14.610;2022-08-21T15:21:50;3.13;;;2.15;;
4198;SDS011;2113;50.946;14.610;2022-08-21T15:24:18;5.63;;;2.40;;
4198;SDS011;2113;50.946;14.610;2022-08-21T15:26:47;5.50;;;2.15;;
4198;SDS011;2113;50.946;14.610;2022-08-21T15:29:15;7.30;;;2.60;;
4198;SDS011;2113;50.946;14.610;2022-08-21T15:31:52;6.78;;;2.45;;
4198;SDS011;2113;50.946;14.610;2022-08-21T15:34:24;3.67;;;2.22;;
4198;SDS011;2113;50.946;14.610;2022-08-21T15:36:54;6.93;;;2.05;;
4198;SDS011;2113;50.946;14.610;2022-08-21T15:39:22;4.68;;;2.85;;
4198;SDS011;2113;50.946;14.610;2022-08-21T15:41:57;9.02;;;3.00;;
4198;SDS011;2113;50.946;14.610;2022-08-21T15:44:36;4.85;;;3.33;;
4198;SDS011;2113;50.946;14.610;2022-08-21T15:47:05;5.32;;;3.30;;
4198;SDS011;2113;50.946;14.610;2022-08-21T15:49:35;3.70;;;2.55;;
4198;SDS011;2113;50.946;14.610;2022-08-21T15:52:03;5.15;;;2.90;;
4198;SDS011;2113;50.946;14.610;2022-08-21T15:54:31;7.93;;;3.20;;
4198;SDS011;2113;50.946;14.610;2022-08-21T15:56:59;5.43;;;3.10;;
4198;SDS011;2113;50.946;14.610;2022-08-21T15:59:27;5.40;;;2.30;;
4198;SDS011;2113;50.946;14.610;2022-08-21T16:01:56;6.60;;;2.55;;